sensor_id;sensor_type;location;lat;lon;timestamp;pressure;altitude;pressure_sealevel;temperature;humidity
23589;BME280;11972;48.078;11.876;2023-04-02T00:01:18;94601.38;;;7.13;100.00
23589;BME280;11972;48.078;11.876;2023-04-02T00:09:31;94609.00;;;7.08;100.00
23589;BME280;11972;48.078;11.876;2023-04-02T00:13:44;94606.19;;;7.09;100.00
23589;BME280;11972;48.078;11.876;2023-04-02T00:17:46;94610.88;;;7.14;100.00
23589;BME280;11972;48.078;11.876;2023-04-02T00:21:46;94605.38;;;7.09;100.00
23589;BME280;11972;48.078;11.876;2023-04-02T00:25:47;94610.53;;;7.02;100.00
23589;BME280;11972;48.078;11.876;2023-04-02T00:29:53;94616.50;;;6.96;100.00
23589;BME280;11972;48.078;11.876;2023-04-02T00:33:54;94613.59;;;6.91;100.00
23589;BME280;11972;48.078;11.876;2023-04-02T00:37:55;94611.53;;;6.86;100.00
23589;BME280;11972;48.078;11.876;2023-04-02T00:41:57;94615.97;;;6.86;100.00
23589;BME280;11972;48.078;11.876;2023-04-02T00:46:09;94610.09;;;6.84;100.00
23589;BME280;11972;48.078;11.876;2023-04-02T00:54:19;94619.78;;;6.83;100.00
23589;BME280;11972;48.078;11.876;2023-04-02T00:58:36;94617.59;;;6.87;100.00
23589;BME280;11972;48.078;11.876;2023-04-02T01:02:37;94623.47;;;6.89;100.00
23589;BME280;11972;48.078;11.876;2023-04-02T01:06:41;94624.94;;;6.91;100.00
23589;BME280;11972;48.078;11.876;2023-04-02T01:11:03;94622.66;;;6.88;100.00
23589;BME280;11972;48.078;11.876;2023-04-02T01:15:17;94622.50;;;6.75;100.00
23589;BME280;11972;48.078;11.876;2023-04-02T01:19:48;94623.94;;;6.63;100.00
23589;BME280;11972;48.078;11.876;2023-04-02T01:28:19;94628.88;;;6.58;100.00
23589;BME280;11972;48.078;11.876;2023-04-02T01:32:22;94626.56;;;6.63;100.00
23589;BME280;11972;48.078;11.876;2023-04-02T01:36:35;94629.44;;;6.68;100.00
23589;BME280;11972;48.078;11.876;2023-04-02T01:44:53;94628.38;;;6.77;100.00
23589;BME280;11972;48.078;11.876;2023-04-02T01:49:02;94640.13;;;6.81;100.00
23589;BME280;11972;48.078;11.876;2023-04-02T01:53:06;94639.78;;;6.84;100.00
23589;BME280;11972;48.078;11.876;2023-04-02T01:57:07;94639.44;;;6.87;100.00
23589;BME280;11972;48.078;11.876;2023-04-02T02:01:14;94640.03;;;6.89;100.00
23589;BME280;11972;48.078;11.876;2023-04-02T02:05:20;94652.81;;;6.92;100.00
23589;BME280;11972;48.078;11.876;2023-04-02T02:09:28;94657.72;;;6.95;100.00
23589;BME280;11972;48.078;11.876;2023-04-02T02:13:29;94652.06;;;6.99;100.00
23589;BME280;11972;48.078;11.876;2023-04-02T02:17:31;94660.94;;;6.97;100.00
23589;BME280;11972;48.078;11.876;2023-04-02T02:21:45;94662.97;;;6.95;100.00
23589;BME280;11972;48.078;11.876;2023-04-02T02:25:47;94653.81;;;6.91;100.00
23589;BME280;11972;48.078;11.876;2023-04-02T02:30:01;94666.28;;;6.89;100.00
23589;BME280;11972;48.078;11.876;2023-04-02T02:34:08;94665.47;;;6.89;100.00
23589;BME280;11972;48.078;11.876;2023-04-02T02:38:26;94666.28;;;6.89;100.00
23589;BME280;11972;48.078;11.876;2023-04-02T02:42:35;94655.25;;;6.94;100.00
23589;BME280;11972;48.078;11.876;2023-04-02T02:46:41;94670.66;;;6.97;100.00
23589;BME280;11972;48.078;11.876;2023-04-02T02:50:43;94680.34;;;6.96;100.00
23589;BME280;11972;48.078;11.876;2023-04-02T02:54:50;94678.31;;;6.99;100.00
23589;BME280;11972;48.078;11.876;2023-04-02T02:58:52;94683.97;;;6.95;100.00
23589;BME280;11972;48.078;11.876;2023-04-02T03:02:55;94678.25;;;6.92;100.00
23589;BME280;11972;48.078;11.876;2023-04-02T03:06:56;94692.34;;;6.91;100.00
23589;BME280;11972;48.078;11.876;2023-04-02T03:11:07;94687.09;;;6.91;100.00
23589;BME280;11972;48.078;11.876;2023-04-02T03:15:21;94697.16;;;6.87;100.00
23589;BME280;11972;48.078;11.876;2023-04-02T03:19:37;94697.25;;;6.79;100.00
23589;BME280;11972;48.078;11.876;2023-04-02T03:23:50;94701.03;;;6.77;100.00
23589;BME280;11972;48.078;11.876;2023-04-02T03:27:57;94694.16;;;6.76;100.00
23589;BME280;11972;48.078;11.876;2023-04-02T03:32:04;94699.22;;;6.77;100.00
23589;BME280;11972;48.078;11.876;2023-04-02T03:36:32;94706.09;;;6.78;100.00
23589;BME280;11972;48.078;11.876;2023-04-02T03:40:38;94707.09;;;6.77;100.00
23589;BME280;11972;48.078;11.876;2023-04-02T03:44:57;94716.31;;;6.73;100.00
23589;BME280;11972;48.078;11.876;2023-04-02T03:49:12;94715.03;;;6.69;100.00
23589;BME280;11972;48.078;11.876;2023-04-02T03:53:16;94715.03;;;6.69;100.00
23589;BME280;11972;48.078;11.876;2023-04-02T04:02:05;94718.91;;;6.58;100.00
23589;BME280;11972;48.078;11.876;2023-04-02T04:06:19;94732.94;;;6.51;100.00
23589;BME280;11972;48.078;11.876;2023-04-02T04:10:24;94736.91;;;6.46;100.00
23589;BME280;11972;48.078;11.876;2023-04-02T04:14:33;94739.84;;;6.43;100.00
23589;BME280;11972;48.078;11.876;2023-04-02T04:18:39;94744.28;;;6.43;100.00
23589;BME280;11972;48.078;11.876;2023-04-02T04:22:41;94750.16;;;6.45;100.00
23589;BME280;11972;48.078;11.876;2023-04-02T04:26:42;94759.84;;;6.44;100.00
23589;BME280;11972;48.078;11.876;2023-04-02T04:30:57;94765.44;;;6.41;100.00
23589;BME280;11972;48.078;11.876;2023-04-02T04:35:04;94775.94;;;6.41;100.00
23589;BME280;11972;48.078;11.876;2023-04-02T04:39:12;94773.63;;;6.46;100.00
23589;BME280;11972;48.078;11.876;2023-04-02T04:43:23;94776.53;;;6.52;100.00
23589;BME280;11972;48.078;11.876;2023-04-02T04:47:28;94780.09;;;6.59;100.00
23589;BME280;11972;48.078;11.876;2023-04-02T04:51:50;94783.16;;;6.62;100.00
23589;BME280;11972;48.078;11.876;2023-04-02T04:55:55;94789.25;;;6.63;100.00
23589;BME280;11972;48.078;11.876;2023-04-02T05:00:11;94788.59;;;6.61;100.00
23589;BME280;11972;48.078;11.876;2023-04-02T05:04:34;94793.56;;;6.56;100.00
23589;BME280;11972;48.078;11.876;2023-04-02T05:08:39;94809.28;;;6.56;100.00
23589;BME280;11972;48.078;11.876;2023-04-02T05:12:59;94804.84;;;6.56;100.00
23589;BME280;11972;48.078;11.876;2023-04-02T05:17:07;94814.53;;;6.56;100.00
23589;BME280;11972;48.078;11.876;2023-04-02T05:21:36;94819.78;;;6.56;100.00
23589;BME280;11972;48.078;11.876;2023-04-02T05:25:51;94824.84;;;6.57;100.00
23589;BME280;11972;48.078;11.876;2023-04-02T05:34:28;94827.31;;;6.59;100.00
23589;BME280;11972;48.078;11.876;2023-04-02T05:38:34;94836.47;;;6.63;100.00
23589;BME280;11972;48.078;11.876;2023-04-02T05:42:36;94832.66;;;6.65;100.00
23589;BME280;11972;48.078;11.876;2023-04-02T05:46:46;94842.63;;;6.70;100.00
23589;BME280;11972;48.078;11.876;2023-04-02T05:50:53;94846.84;;;6.79;100.00
23589;BME280;11972;48.078;11.876;2023-04-02T05:59:25;94854.31;;;6.90;100.00
23589;BME280;11972;48.078;11.876;2023-04-02T06:03:36;94861.84;;;6.93;100.00
23589;BME280;11972;48.078;11.876;2023-04-02T06:12:23;94865.22;;;7.02;100.00
23589;BME280;11972;48.078;11.876;2023-04-02T06:16:28;94870.59;;;7.09;100.00
23589;BME280;11972;48.078;11.876;2023-04-02T06:20:30;94871.53;;;7.16;100.00
23589;BME280;11972;48.078;11.876;2023-04-02T06:24:30;94868.78;;;7.24;100.00
23589;BME280;11972;48.078;11.876;2023-04-02T06:28:43;94874.81;;;7.33;100.00
23589;BME280;11972;48.078;11.876;2023-04-02T06:32:45;94873.28;;;7.38;100.00
23589;BME280;11972;48.078;11.876;2023-04-02T06:36:46;94871.19;;;7.49;100.00
23589;BME280;11972;48.078;11.876;2023-04-02T06:40:55;94880.00;;;7.56;100.00
23589;BME280;11972;48.078;11.876;2023-04-02T06:44:57;94878.22;;;7.71;100.00
23589;BME280;11972;48.078;11.876;2023-04-02T06:49:03;94891.81;;;7.89;100.00
23589;BME280;11972;48.078;11.876;2023-04-02T06:53:06;94897.28;;;8.03;100.00
23589;BME280;11972;48.078;11.876;2023-04-02T06:57:13;94909.41;;;8.18;100.00
23589;BME280;11972;48.078;11.876;2023-04-02T07:01:21;94918.66;;;8.29;100.00
23589;BME280;11972;48.078;11.876;2023-04-02T07:05:23;94907.72;;;8.40;100.00
23589;BME280;11972;48.078;11.876;2023-04-02T07:09:24;94908.50;;;8.56;100.00
23589;BME280;11972;48.078;11.876;2023-04-02T07:13:25;94924.47;;;8.69;100.00
23589;BME280;11972;48.078;11.876;2023-04-02T07:17:25;94914.81;;;8.76;100.00
23589;BME280;11972;48.078;11.876;2023-04-02T07:21:26;94915.69;;;8.83;100.00
23589;BME280;11972;48.078;11.876;2023-04-02T07:25:26;94931.28;;;9.00;100.00
23589;BME280;11972;48.078;11.876;2023-04-02T07:29:27;94919.19;;;9.05;100.00
23589;BME280;11972;48.078;11.876;2023-04-02T07:33:29;94928.59;;;9.14;100.00
23589;BME280;11972;48.078;11.876;2023-04-02T07:37:30;94936.94;;;9.18;100.00
23589;BME280;11972;48.078;11.876;2023-04-02T07:41:30;94946.09;;;9.22;100.00
23589;BME280;11972;48.078;11.876;2023-04-02T07:45:31;94946.47;;;9.40;100.00
23589;BME280;11972;48.078;11.876;2023-04-02T07:49:31;94954.91;;;9.51;100.00
23589;BME280;11972;48.078;11.876;2023-04-02T07:53:34;94948.03;;;9.56;100.00
23589;BME280;11972;48.078;11.876;2023-04-02T07:57:38;94958.38;;;9.58;100.00
23589;BME280;11972;48.078;11.876;2023-04-02T08:01:40;94970.44;;;9.67;100.00
23589;BME280;11972;48.078;11.876;2023-04-02T08:05:42;94972.50;;;9.72;100.00
23589;BME280;11972;48.078;11.876;2023-04-02T08:09:42;94984.75;;;9.79;100.00
23589;BME280;11972;48.078;11.876;2023-04-02T08:13:42;94985.03;;;9.91;100.00
23589;BME280;11972;48.078;11.876;2023-04-02T08:17:44;94988.69;;;9.90;100.00
23589;BME280;11972;48.078;11.876;2023-04-02T08:21:45;94992.94;;;9.91;100.00
23589;BME280;11972;48.078;11.876;2023-04-02T08:25:47;94999.19;;;10.11;100.00
23589;BME280;11972;48.078;11.876;2023-04-02T08:29:47;94996.28;;;10.28;100.00
23589;BME280;11972;48.078;11.876;2023-04-02T08:33:48;94997.13;;;10.63;100.00
23589;BME280;11972;48.078;11.876;2023-04-02T08:37:48;94992.53;;;10.78;100.00
23589;BME280;11972;48.078;11.876;2023-04-02T08:41:59;94995.63;;;10.88;100.00
23589;BME280;11972;48.078;11.876;2023-04-02T08:50:36;95003.09;;;11.33;100.00
23589;BME280;11972;48.078;11.876;2023-04-02T08:54:36;95001.88;;;11.29;100.00
23589;BME280;11972;48.078;11.876;2023-04-02T08:58:42;95008.69;;;11.03;100.00
23589;BME280;11972;48.078;11.876;2023-04-02T09:02:52;95009.09;;;11.00;100.00
23589;BME280;11972;48.078;11.876;2023-04-02T09:06:55;95010.69;;;10.95;100.00
23589;BME280;11972;48.078;11.876;2023-04-02T09:15:05;95021.66;;;10.91;100.00
23589;BME280;11972;48.078;11.876;2023-04-02T09:19:15;95023.09;;;11.01;100.00
23589;BME280;11972;48.078;11.876;2023-04-02T09:23:19;95031.84;;;10.95;100.00
23589;BME280;11972;48.078;11.876;2023-04-02T09:27:23;95039.00;;;11.07;100.00
23589;BME280;11972;48.078;11.876;2023-04-02T09:31:37;95033.34;;;11.17;100.00
23589;BME280;11972;48.078;11.876;2023-04-02T09:39:48;95049.31;;;10.61;100.00
23589;BME280;11972;48.078;11.876;2023-04-02T09:43:48;95058.25;;;10.95;100.00
23589;BME280;11972;48.078;11.876;2023-04-02T09:47:50;95049.38;;;11.09;100.00
23589;BME280;11972;48.078;11.876;2023-04-02T09:52:16;95044.25;;;11.49;100.00
23589;BME280;11972;48.078;11.876;2023-04-02T09:56:20;95059.47;;;11.47;100.00
23589;BME280;11972;48.078;11.876;2023-04-02T10:00:23;95054.44;;;11.65;100.00
23589;BME280;11972;48.078;11.876;2023-04-02T10:04:46;95050.53;;;11.54;100.00
23589;BME280;11972;48.078;11.876;2023-04-02T10:08:47;95054.03;;;11.68;100.00
23589;BME280;11972;48.078;11.876;2023-04-02T10:12:52;95058.59;;;11.94;100.00
23589;BME280;11972;48.078;11.876;2023-04-02T10:17:14;95069.81;;;12.16;100.00
23589;BME280;11972;48.078;11.876;2023-04-02T10:21:22;95058.22;;;12.30;100.00
23589;BME280;11972;48.078;11.876;2023-04-02T10:25:26;95062.69;;;12.03;100.00
23589;BME280;11972;48.078;11.876;2023-04-02T10:29:46;95055.97;;;12.07;100.00
23589;BME280;11972;48.078;11.876;2023-04-02T10:34:02;95059.84;;;12.11;100.00
23589;BME280;11972;48.078;11.876;2023-04-02T10:38:34;95057.78;;;11.94;100.00
23589;BME280;11972;48.078;11.876;2023-04-02T10:42:40;95065.53;;;12.08;100.00
23589;BME280;11972;48.078;11.876;2023-04-02T10:55:17;95077.94;;;11.95;100.00
23589;BME280;11972;48.078;11.876;2023-04-02T10:59:26;95081.41;;;12.02;100.00
23589;BME280;11972;48.078;11.876;2023-04-02T11:03:43;95079.78;;;11.94;100.00
23589;BME280;11972;48.078;11.876;2023-04-02T11:08:10;95084.84;;;11.89;100.00
23589;BME280;11972;48.078;11.876;2023-04-02T11:12:42;95090.69;;;11.78;100.00
23589;BME280;11972;48.078;11.876;2023-04-02T11:16:48;95083.28;;;11.47;100.00
23589;BME280;11972;48.078;11.876;2023-04-02T11:24:50;95092.81;;;11.41;100.00
23589;BME280;11972;48.078;11.876;2023-04-02T11:29:01;95085.84;;;11.88;100.00
23589;BME280;11972;48.078;11.876;2023-04-02T11:37:40;95094.41;;;11.83;100.00
23589;BME280;11972;48.078;11.876;2023-04-02T11:42:02;95094.06;;;11.52;100.00
23589;BME280;11972;48.078;11.876;2023-04-02T11:50:34;95114.00;;;11.06;100.00
23589;BME280;11972;48.078;11.876;2023-04-02T11:54:36;95118.69;;;10.76;100.00
23589;BME280;11972;48.078;11.876;2023-04-02T11:59:02;95120.09;;;10.72;100.00
23589;BME280;11972;48.078;11.876;2023-04-02T12:12:17;95129.09;;;11.19;100.00
23589;BME280;11972;48.078;11.876;2023-04-02T12:16:24;95125.84;;;11.17;100.00
23589;BME280;11972;48.078;11.876;2023-04-02T12:20:30;95133.56;;;11.12;100.00
23589;BME280;11972;48.078;11.876;2023-04-02T12:24:30;95138.25;;;11.58;100.00
23589;BME280;11972;48.078;11.876;2023-04-02T12:28:31;95133.50;;;11.88;100.00
23589;BME280;11972;48.078;11.876;2023-04-02T12:32:33;95133.59;;;11.66;100.00
23589;BME280;11972;48.078;11.876;2023-04-02T12:36:33;95135.91;;;11.35;100.00
23589;BME280;11972;48.078;11.876;2023-04-02T12:40:35;95132.81;;;11.25;100.00
23589;BME280;11972;48.078;11.876;2023-04-02T12:44:35;95135.03;;;11.69;100.00
23589;BME280;11972;48.078;11.876;2023-04-02T12:48:37;95139.47;;;12.10;100.00
23589;BME280;11972;48.078;11.876;2023-04-02T12:52:45;95142.38;;;11.80;100.00
23589;BME280;11972;48.078;11.876;2023-04-02T12:56:47;95163.75;;;10.68;100.00
23589;BME280;11972;48.078;11.876;2023-04-02T13:00:47;95172.84;;;10.01;100.00
23589;BME280;11972;48.078;11.876;2023-04-02T13:04:56;95182.50;;;9.58;100.00
23589;BME280;11972;48.078;11.876;2023-04-02T13:09:01;95182.34;;;8.85;100.00
23589;BME280;11972;48.078;11.876;2023-04-02T13:13:02;95195.13;;;8.51;100.00
23589;BME280;11972;48.078;11.876;2023-04-02T13:17:03;95188.34;;;8.56;100.00
23589;BME280;11972;48.078;11.876;2023-04-02T13:25:26;95189.38;;;8.70;100.00
23589;BME280;11972;48.078;11.876;2023-04-02T13:29:32;95198.28;;;8.69;100.00
23589;BME280;11972;48.078;11.876;2023-04-02T13:33:32;95191.91;;;8.63;100.00
23589;BME280;11972;48.078;11.876;2023-04-02T13:37:33;95194.03;;;8.83;100.00
23589;BME280;11972;48.078;11.876;2023-04-02T13:41:44;95200.56;;;8.87;100.00
23589;BME280;11972;48.078;11.876;2023-04-02T13:45:49;95205.97;;;8.93;100.00
23589;BME280;11972;48.078;11.876;2023-04-02T13:49:50;95204.59;;;8.98;100.00
23589;BME280;11972;48.078;11.876;2023-04-02T13:53:54;95208.91;;;8.76;100.00
23589;BME280;11972;48.078;11.876;2023-04-02T13:57:56;95206.09;;;8.77;100.00
23589;BME280;11972;48.078;11.876;2023-04-02T14:02:00;95203.69;;;8.67;100.00
23589;BME280;11972;48.078;11.876;2023-04-02T14:06:17;95212.34;;;8.76;100.00
23589;BME280;11972;48.078;11.876;2023-04-02T14:10:42;95205.38;;;8.83;100.00
23589;BME280;11972;48.078;11.876;2023-04-02T14:19:28;95213.13;;;9.00;100.00
23589;BME280;11972;48.078;11.876;2023-04-02T14:23:45;95209.25;;;9.40;100.00
23589;BME280;11972;48.078;11.876;2023-04-02T14:28:46;95214.88;;;9.52;100.00
23589;BME280;11972;48.078;11.876;2023-04-02T14:32:37;95210.72;;;9.79;100.00
23589;BME280;11972;48.078;11.876;2023-04-02T14:41:13;95222.50;;;9.17;100.00
23589;BME280;11972;48.078;11.876;2023-04-02T14:49:24;95252.06;;;7.58;100.00
23589;BME280;11972;48.078;11.876;2023-04-02T14:53:30;95260.84;;;7.34;100.00
23589;BME280;11972;48.078;11.876;2023-04-02T14:57:46;95269.75;;;7.17;100.00
23589;BME280;11972;48.078;11.876;2023-04-02T15:01:56;95273.00;;;7.19;100.00
23589;BME280;11972;48.078;11.876;2023-04-02T15:06:04;95274.16;;;7.25;100.00
23589;BME280;11972;48.078;11.876;2023-04-02T15:10:33;95283.16;;;7.38;100.00
23589;BME280;11972;48.078;11.876;2023-04-02T15:14:45;95279.25;;;7.26;100.00
23589;BME280;11972;48.078;11.876;2023-04-02T15:18:57;95284.50;;;7.18;100.00
23589;BME280;11972;48.078;11.876;2023-04-02T15:31:20;95286.84;;;7.05;100.00
23589;BME280;11972;48.078;11.876;2023-04-02T15:35:45;95291.75;;;7.16;100.00
23589;BME280;11972;48.078;11.876;2023-04-02T15:44:14;95302.09;;;7.09;100.00
23589;BME280;11972;48.078;11.876;2023-04-02T15:48:30;95299.13;;;7.12;100.00
23589;BME280;11972;48.078;11.876;2023-04-02T15:53:06;95307.16;;;7.11;100.00
23589;BME280;11972;48.078;11.876;2023-04-02T16:10:15;95333.44;;;6.86;100.00
23589;BME280;11972;48.078;11.876;2023-04-02T16:14:25;95340.66;;;6.92;100.00
23589;BME280;11972;48.078;11.876;2023-04-02T16:23:02;95350.16;;;6.69;100.00
23589;BME280;11972;48.078;11.876;2023-04-02T16:27:29;95358.34;;;6.58;100.00
23589;BME280;11972;48.078;11.876;2023-04-02T16:36:21;95368.13;;;6.31;100.00
23589;BME280;11972;48.078;11.876;2023-04-02T16:45:29;95400.16;;;6.09;100.00
23589;BME280;11972;48.078;11.876;2023-04-02T16:54:10;95415.28;;;5.63;100.00
23589;BME280;11972;48.078;11.876;2023-04-02T16:58:24;95418.69;;;5.55;100.00
23589;BME280;11972;48.078;11.876;2023-04-02T17:07:08;95427.94;;;5.41;100.00
23589;BME280;11972;48.078;11.876;2023-04-02T17:11:49;95431.00;;;5.37;100.00
23589;BME280;11972;48.078;11.876;2023-04-02T17:20:25;95451.72;;;5.30;100.00
23589;BME280;11972;48.078;11.876;2023-04-02T17:28:36;95466.84;;;5.01;100.00
23589;BME280;11972;48.078;11.876;2023-04-02T17:32:44;95475.44;;;4.93;100.00
23589;BME280;11972;48.078;11.876;2023-04-02T17:36:49;95472.16;;;4.91;100.00
23589;BME280;11972;48.078;11.876;2023-04-02T17:41:19;95491.06;;;4.85;100.00
23589;BME280;11972;48.078;11.876;2023-04-02T17:45:43;95497.34;;;4.74;100.00
23589;BME280;11972;48.078;11.876;2023-04-02T17:50:31;95505.38;;;4.63;100.00
23589;BME280;11972;48.078;11.876;2023-04-02T17:59:34;95523.78;;;4.43;100.00
23589;BME280;11972;48.078;11.876;2023-04-02T18:17:14;95555.19;;;3.96;100.00
23589;BME280;11972;48.078;11.876;2023-04-02T18:25:44;95567.56;;;3.94;100.00
23589;BME280;11972;48.078;11.876;2023-04-02T18:34:25;95575.84;;;3.80;100.00
23589;BME280;11972;48.078;11.876;2023-04-02T18:38:58;95589.03;;;3.69;100.00
23589;BME280;11972;48.078;11.876;2023-04-02T18:47:46;95595.63;;;3.54;100.00
23589;BME280;11972;48.078;11.876;2023-04-02T18:51:58;95613.09;;;3.34;100.00
23589;BME280;11972;48.078;11.876;2023-04-02T18:56:12;95622.56;;;3.25;100.00
23589;BME280;11972;48.078;11.876;2023-04-02T19:00:29;95620.31;;;3.20;100.00
23589;BME280;11972;48.078;11.876;2023-04-02T19:04:38;95634.22;;;3.21;100.00
23589;BME280;11972;48.078;11.876;2023-04-02T19:08:47;95646.97;;;3.14;100.00
23589;BME280;11972;48.078;11.876;2023-04-02T19:12:50;95643.91;;;2.99;100.00
23589;BME280;11972;48.078;11.876;2023-04-02T19:21:37;95661.22;;;2.70;100.00
23589;BME280;11972;48.078;11.876;2023-04-02T19:25:59;95666.31;;;2.71;100.00
23589;BME280;11972;48.078;11.876;2023-04-02T19:39:23;95686.06;;;2.64;100.00
23589;BME280;11972;48.078;11.876;2023-04-02T19:43:12;95708.16;;;2.39;100.00
23589;BME280;11972;48.078;11.876;2023-04-02T19:47:15;95701.16;;;2.19;100.00
23589;BME280;11972;48.078;11.876;2023-04-02T19:51:16;95718.88;;;2.04;100.00
23589;BME280;11972;48.078;11.876;2023-04-02T19:55:17;95714.41;;;1.95;100.00
23589;BME280;11972;48.078;11.876;2023-04-02T19:59:17;95715.75;;;1.89;100.00
23589;BME280;11972;48.078;11.876;2023-04-02T20:03:18;95722.59;;;1.90;100.00
23589;BME280;11972;48.078;11.876;2023-04-02T20:07:19;95722.59;;;1.90;100.00
23589;BME280;11972;48.078;11.876;2023-04-02T20:11:24;95722.75;;;1.78;100.00
23589;BME280;11972;48.078;11.876;2023-04-02T20:15:31;95734.25;;;1.64;100.00
23589;BME280;11972;48.078;11.876;2023-04-02T20:19:32;95731.34;;;1.57;100.00
23589;BME280;11972;48.078;11.876;2023-04-02T20:23:33;95733.50;;;1.41;100.00
23589;BME280;11972;48.078;11.876;2023-04-02T20:27:34;95747.22;;;1.32;100.00
23589;BME280;11972;48.078;11.876;2023-04-02T20:31:35;95756.34;;;1.15;100.00
23589;BME280;11972;48.078;11.876;2023-04-02T20:35:35;95762.75;;;0.99;100.00
23589;BME280;11972;48.078;11.876;2023-04-02T20:39:36;95759.88;;;1.03;100.00
23589;BME280;11972;48.078;11.876;2023-04-02T20:43:38;95769.81;;;0.97;100.00
23589;BME280;11972;48.078;11.876;2023-04-02T20:47:42;95771.72;;;0.84;100.00
23589;BME280;11972;48.078;11.876;2023-04-02T20:51:42;95778.09;;;0.80;100.00
23589;BME280;11972;48.078;11.876;2023-04-02T20:55:43;95786.34;;;0.85;100.00
23589;BME280;11972;48.078;11.876;2023-04-02T20:59:44;95791.78;;;0.82;100.00
23589;BME280;11972;48.078;11.876;2023-04-02T21:03:45;95802.44;;;0.79;100.00
23589;BME280;11972;48.078;11.876;2023-04-02T21:07:49;95797.25;;;0.79;100.00
23589;BME280;11972;48.078;11.876;2023-04-02T21:11:49;95801.50;;;0.80;100.00
23589;BME280;11972;48.078;11.876;2023-04-02T21:15:50;95813.09;;;0.87;100.00
23589;BME280;11972;48.078;11.876;2023-04-02T21:19:50;95807.16;;;0.85;100.00
23589;BME280;11972;48.078;11.876;2023-04-02T21:23:56;95815.22;;;0.93;100.00
23589;BME280;11972;48.078;11.876;2023-04-02T21:27:58;95813.56;;;0.92;100.00
23589;BME280;11972;48.078;11.876;2023-04-02T21:31:58;95817.34;;;0.88;100.00
23589;BME280;11972;48.078;11.876;2023-04-02T21:36:07;95829.41;;;0.89;100.00
23589;BME280;11972;48.078;11.876;2023-04-02T21:40:12;95828.38;;;1.03;100.00
23589;BME280;11972;48.078;11.876;2023-04-02T21:44:15;95824.91;;;1.03;100.00
23589;BME280;11972;48.078;11.876;2023-04-02T21:48:19;95831.31;;;1.10;100.00
23589;BME280;11972;48.078;11.876;2023-04-02T21:52:20;95836.75;;;1.07;100.00
23589;BME280;11972;48.078;11.876;2023-04-02T21:56:24;95835.09;;;1.06;100.00
23589;BME280;11972;48.078;11.876;2023-04-02T22:00:25;95833.44;;;1.05;100.00
23589;BME280;11972;48.078;11.876;2023-04-02T22:04:31;95837.81;;;1.04;100.00
23589;BME280;11972;48.078;11.876;2023-04-02T22:08:33;95835.09;;;1.06;100.00
23589;BME280;11972;48.078;11.876;2023-04-02T22:12:40;95845.50;;;1.06;100.00
23589;BME280;11972;48.078;11.876;2023-04-02T22:16:41;95850.72;;;1.06;100.00
23589;BME280;11972;48.078;11.876;2023-04-02T22:20:42;95855.22;;;1.15;100.00
23589;BME280;11972;48.078;11.876;2023-04-02T22:24:42;95857.72;;;1.16;100.00
23589;BME280;11972;48.078;11.876;2023-04-02T22:28:43;95861.13;;;1.17;100.00
23589;BME280;11972;48.078;11.876;2023-04-02T22:32:43;95855.81;;;1.18;100.00
23589;BME280;11972;48.078;11.876;2023-04-02T22:36:44;95857.84;;;1.26;100.00
23589;BME280;11972;48.078;11.876;2023-04-02T22:40:45;95864.34;;;1.20;100.00
23589;BME280;11972;48.078;11.876;2023-04-02T22:44:46;95863.75;;;1.28;100.00
23589;BME280;11972;48.078;11.876;2023-04-02T22:48:47;95865.53;;;1.28;100.00
23589;BME280;11972;48.078;11.876;2023-04-02T22:52:48;95871.19;;;1.21;100.00
23589;BME280;11972;48.078;11.876;2023-04-02T22:56:48;95872.41;;;1.29;100.00
23589;BME280;11972;48.078;11.876;2023-04-02T23:00:48;95872.88;;;1.34;100.00
23589;BME280;11972;48.078;11.876;2023-04-02T23:04:49;95875.59;;;1.43;100.00
23589;BME280;11972;48.078;11.876;2023-04-02T23:08:49;95882.91;;;1.38;100.00
23589;BME280;11972;48.078;11.876;2023-04-02T23:12:49;95881.50;;;1.34;100.00
23589;BME280;11972;48.078;11.876;2023-04-02T23:16:50;95877.00;;;1.25;100.00
23589;BME280;11972;48.078;11.876;2023-04-02T23:20:50;95887.03;;;1.18;100.00
23589;BME280;11972;48.078;11.876;2023-04-02T23:24:50;95891.53;;;1.16;100.00
23589;BME280;11972;48.078;11.876;2023-04-02T23:28:53;95876.75;;;1.17;100.00
23589;BME280;11972;48.078;11.876;2023-04-02T23:32:53;95887.75;;;1.20;100.00
23589;BME280;11972;48.078;11.876;2023-04-02T23:36:54;95878.66;;;1.26;100.00
23589;BME280;11972;48.078;11.876;2023-04-02T23:40:54;95878.66;;;1.26;100.00
23589;BME280;11972;48.078;11.876;2023-04-02T23:44:54;95876.28;;;1.23;100.00
23589;BME280;11972;48.078;11.876;2023-04-02T23:48:56;95874.41;;;1.36;100.00
23589;BME280;11972;48.078;11.876;2023-04-02T23:52:56;95874.03;;;1.52;100.00
23589;BME280;11972;48.078;11.876;2023-04-02T23:56:57;95883.88;;;1.71;100.00
